sensor_id;sensor_type;location;lat;lon;timestamp;P1;durP1;ratioP1;P2;durP2;ratioP2
29730;SDS011;16639;51.488;0.152;2022-11-15T00:01:09;8.95;;;2.20;;
29730;SDS011;16639;51.488;0.152;2022-11-15T00:03:43;8.52;;;2.10;;
29730;SDS011;16639;51.488;0.152;2022-11-15T00:06:11;5.07;;;2.30;;
29730;SDS011;16639;51.488;0.152;2022-11-15T00:08:39;5.47;;;2.20;;
29730;SDS011;16639;51.488;0.152;2022-11-15T00:11:08;9.88;;;2.22;;
29730;SDS011;16639;51.488;0.152;2022-11-15T00:13:38;6.05;;;2.10;;
29730;SDS011;16639;51.488;0.152;2022-11-15T00:16:06;11.07;;;2.15;;
29730;SDS011;16639;51.488;0.152;2022-11-15T00:18:35;14.85;;;3.55;;
29730;SDS011;16639;51.488;0.152;2022-11-15T00:21:04;13.35;;;3.13;;
29730;SDS011;16639;51.488;0.152;2022-11-15T00:23:33;9.77;;;2.45;;
29730;SDS011;16639;51.488;0.152;2022-11-15T00:26:01;9.32;;;3.33;;
29730;SDS011;16639;51.488;0.152;2022-11-15T00:28:28;15.30;;;2.92;;
29730;SDS011;16639;51.488;0.152;2022-11-15T00:31:02;6.35;;;2.28;;
29730;SDS011;16639;51.488;0.152;2022-11-15T00:33:32;11.13;;;2.30;;
29730;SDS011;16639;51.488;0.152;2022-11-15T00:36:01;10.77;;;2.92;;
29730;SDS011;16639;51.488;0.152;2022-11-15T00:38:32;13.98;;;3.38;;
29730;SDS011;16639;51.488;0.152;2022-11-15T00:41:00;11.15;;;2.63;;
29730;SDS011;16639;51.488;0.152;2022-11-15T00:43:35;12.95;;;2.45;;
29730;SDS011;16639;51.488;0.152;2022-11-15T00:46:02;7.68;;;3.45;;
29730;SDS011;16639;51.488;0.152;2022-11-15T00:48:30;7.50;;;2.80;;
29730;SDS011;16639;51.488;0.152;2022-11-15T00:50:58;11.02;;;2.92;;
29730;SDS011;16639;51.488;0.152;2022-11-15T00:53:25;8.93;;;3.15;;
29730;SDS011;16639;51.488;0.152;2022-11-15T00:55:53;7.97;;;2.75;;
29730;SDS011;16639;51.488;0.152;2022-11-15T00:58:20;6.18;;;2.25;;
29730;SDS011;16639;51.488;0.152;2022-11-15T01:00:47;11.30;;;3.63;;
29730;SDS011;16639;51.488;0.152;2022-11-15T01:03:15;5.63;;;2.78;;
29730;SDS011;16639;51.488;0.152;2022-11-15T01:05:42;8.65;;;2.72;;
29730;SDS011;16639;51.488;0.152;2022-11-15T01:08:12;6.78;;;2.40;;
29730;SDS011;16639;51.488;0.152;2022-11-15T01:10:40;15.88;;;3.42;;
29730;SDS011;16639;51.488;0.152;2022-11-15T01:13:08;7.00;;;2.83;;
29730;SDS011;16639;51.488;0.152;2022-11-15T01:15:38;4.95;;;2.60;;
29730;SDS011;16639;51.488;0.152;2022-11-15T01:18:07;9.85;;;3.22;;
29730;SDS011;16639;51.488;0.152;2022-11-15T01:20:34;12.63;;;2.50;;
29730;SDS011;16639;51.488;0.152;2022-11-15T01:23:06;7.65;;;3.25;;
29730;SDS011;16639;51.488;0.152;2022-11-15T01:25:33;13.55;;;3.97;;
29730;SDS011;16639;51.488;0.152;2022-11-15T01:28:01;7.88;;;3.08;;
29730;SDS011;16639;51.488;0.152;2022-11-15T01:30:28;6.88;;;3.78;;
29730;SDS011;16639;51.488;0.152;2022-11-15T01:32:55;18.38;;;4.10;;
29730;SDS011;16639;51.488;0.152;2022-11-15T01:35:23;10.05;;;2.53;;
29730;SDS011;16639;51.488;0.152;2022-11-15T01:37:50;10.48;;;2.28;;
29730;SDS011;16639;51.488;0.152;2022-11-15T01:40:17;10.43;;;2.83;;
29730;SDS011;16639;51.488;0.152;2022-11-15T01:42:45;12.27;;;1.98;;
29730;SDS011;16639;51.488;0.152;2022-11-15T01:45:13;9.02;;;2.30;;
29730;SDS011;16639;51.488;0.152;2022-11-15T01:47:48;5.55;;;2.00;;
29730;SDS011;16639;51.488;0.152;2022-11-15T01:50:22;12.00;;;3.00;;
29730;SDS011;16639;51.488;0.152;2022-11-15T01:52:57;10.40;;;2.67;;
29730;SDS011;16639;51.488;0.152;2022-11-15T01:55:25;15.75;;;2.60;;
29730;SDS011;16639;51.488;0.152;2022-11-15T01:57:56;15.25;;;3.05;;
29730;SDS011;16639;51.488;0.152;2022-11-15T02:00:26;12.00;;;3.45;;
29730;SDS011;16639;51.488;0.152;2022-11-15T02:02:54;10.98;;;3.60;;
29730;SDS011;16639;51.488;0.152;2022-11-15T02:05:22;9.73;;;2.70;;
29730;SDS011;16639;51.488;0.152;2022-11-15T02:07:49;8.98;;;3.80;;
29730;SDS011;16639;51.488;0.152;2022-11-15T02:10:18;12.95;;;3.10;;
29730;SDS011;16639;51.488;0.152;2022-11-15T02:12:49;11.48;;;4.82;;
29730;SDS011;16639;51.488;0.152;2022-11-15T02:15:17;10.43;;;4.13;;
29730;SDS011;16639;51.488;0.152;2022-11-15T02:21:10;10.60;;;3.28;;
29730;SDS011;16639;51.488;0.152;2022-11-15T02:29:16;12.25;;;3.40;;
29730;SDS011;16639;51.488;0.152;2022-11-15T02:40:00;10.40;;;3.30;;
29730;SDS011;16639;51.488;0.152;2022-11-15T02:42:45;9.32;;;2.78;;
29730;SDS011;16639;51.488;0.152;2022-11-15T02:45:44;6.30;;;3.10;;
29730;SDS011;16639;51.488;0.152;2022-11-15T02:48:17;18.45;;;3.55;;
29730;SDS011;16639;51.488;0.152;2022-11-15T02:50:46;8.15;;;2.53;;
29730;SDS011;16639;51.488;0.152;2022-11-15T02:53:14;6.75;;;2.45;;
29730;SDS011;16639;51.488;0.152;2022-11-15T02:55:46;13.15;;;3.17;;
29730;SDS011;16639;51.488;0.152;2022-11-15T03:09:04;9.23;;;2.83;;
29730;SDS011;16639;51.488;0.152;2022-11-15T03:11:53;10.32;;;3.13;;
29730;SDS011;16639;51.488;0.152;2022-11-15T03:15:00;18.17;;;4.20;;
29730;SDS011;16639;51.488;0.152;2022-11-15T03:17:37;13.45;;;2.25;;
29730;SDS011;16639;51.488;0.152;2022-11-15T03:20:09;14.20;;;2.55;;
29730;SDS011;16639;51.488;0.152;2022-11-15T03:22:42;3.60;;;1.85;;
29730;SDS011;16639;51.488;0.152;2022-11-15T03:25:13;12.52;;;2.25;;
29730;SDS011;16639;51.488;0.152;2022-11-15T03:27:47;14.05;;;2.85;;
29730;SDS011;16639;51.488;0.152;2022-11-15T03:30:18;13.45;;;2.33;;
29730;SDS011;16639;51.488;0.152;2022-11-15T03:32:52;14.05;;;2.72;;
29730;SDS011;16639;51.488;0.152;2022-11-15T03:35:22;10.90;;;2.58;;
29730;SDS011;16639;51.488;0.152;2022-11-15T03:38:06;6.63;;;1.92;;
29730;SDS011;16639;51.488;0.152;2022-11-15T03:43:41;15.30;;;3.45;;
29730;SDS011;16639;51.488;0.152;2022-11-15T03:46:33;13.40;;;2.83;;
29730;SDS011;16639;51.488;0.152;2022-11-15T03:49:15;15.48;;;2.45;;
29730;SDS011;16639;51.488;0.152;2022-11-15T03:51:50;16.27;;;3.38;;
29730;SDS011;16639;51.488;0.152;2022-11-15T03:54:18;15.00;;;3.13;;
29730;SDS011;16639;51.488;0.152;2022-11-15T03:56:45;13.48;;;2.20;;
29730;SDS011;16639;51.488;0.152;2022-11-15T03:59:12;23.25;;;3.22;;
29730;SDS011;16639;51.488;0.152;2022-11-15T04:01:40;9.98;;;2.20;;
29730;SDS011;16639;51.488;0.152;2022-11-15T04:04:07;5.88;;;2.40;;
29730;SDS011;16639;51.488;0.152;2022-11-15T04:06:35;11.20;;;2.60;;
29730;SDS011;16639;51.488;0.152;2022-11-15T04:09:03;16.73;;;2.78;;
29730;SDS011;16639;51.488;0.152;2022-11-15T04:11:30;20.55;;;3.67;;
29730;SDS011;16639;51.488;0.152;2022-11-15T04:13:57;8.20;;;3.40;;
29730;SDS011;16639;51.488;0.152;2022-11-15T04:16:24;11.50;;;3.42;;
29730;SDS011;16639;51.488;0.152;2022-11-15T04:18:52;4.30;;;1.70;;
29730;SDS011;16639;51.488;0.152;2022-11-15T04:21:37;15.45;;;2.80;;
29730;SDS011;16639;51.488;0.152;2022-11-15T04:24:23;10.05;;;2.55;;
29730;SDS011;16639;51.488;0.152;2022-11-15T04:26:51;10.73;;;2.50;;
29730;SDS011;16639;51.488;0.152;2022-11-15T04:29:18;10.73;;;2.95;;
29730;SDS011;16639;51.488;0.152;2022-11-15T04:32:01;12.48;;;3.40;;
29730;SDS011;16639;51.488;0.152;2022-11-15T04:34:32;14.70;;;3.40;;
29730;SDS011;16639;51.488;0.152;2022-11-15T04:37:00;11.55;;;2.28;;
29730;SDS011;16639;51.488;0.152;2022-11-15T04:39:40;6.18;;;2.17;;
29730;SDS011;16639;51.488;0.152;2022-11-15T04:42:08;5.50;;;2.13;;
29730;SDS011;16639;51.488;0.152;2022-11-15T04:44:36;7.53;;;2.38;;
29730;SDS011;16639;51.488;0.152;2022-11-15T04:47:03;16.25;;;2.85;;
29730;SDS011;16639;51.488;0.152;2022-11-15T04:49:31;13.23;;;2.45;;
29730;SDS011;16639;51.488;0.152;2022-11-15T04:51:58;5.72;;;2.13;;
29730;SDS011;16639;51.488;0.152;2022-11-15T04:54:25;11.85;;;3.10;;
29730;SDS011;16639;51.488;0.152;2022-11-15T04:56:53;9.50;;;2.15;;
29730;SDS011;16639;51.488;0.152;2022-11-15T04:59:20;11.20;;;2.58;;
29730;SDS011;16639;51.488;0.152;2022-11-15T05:01:47;17.38;;;3.92;;
29730;SDS011;16639;51.488;0.152;2022-11-15T05:04:15;13.93;;;3.28;;
29730;SDS011;16639;51.488;0.152;2022-11-15T05:06:51;8.65;;;3.17;;
29730;SDS011;16639;51.488;0.152;2022-11-15T05:09:20;14.95;;;3.55;;
29730;SDS011;16639;51.488;0.152;2022-11-15T05:11:47;18.52;;;4.00;;
29730;SDS011;16639;51.488;0.152;2022-11-15T05:14:15;14.13;;;2.65;;
29730;SDS011;16639;51.488;0.152;2022-11-15T05:16:43;20.65;;;3.45;;
29730;SDS011;16639;51.488;0.152;2022-11-15T05:19:10;11.82;;;2.28;;
29730;SDS011;16639;51.488;0.152;2022-11-15T05:21:38;9.98;;;2.72;;
29730;SDS011;16639;51.488;0.152;2022-11-15T05:24:05;14.30;;;3.15;;
29730;SDS011;16639;51.488;0.152;2022-11-15T05:26:33;9.30;;;3.13;;
29730;SDS011;16639;51.488;0.152;2022-11-15T05:29:00;25.55;;;3.83;;
29730;SDS011;16639;51.488;0.152;2022-11-15T05:31:27;9.43;;;2.50;;
29730;SDS011;16639;51.488;0.152;2022-11-15T05:33:55;10.70;;;3.70;;
29730;SDS011;16639;51.488;0.152;2022-11-15T05:36:31;11.52;;;2.63;;
29730;SDS011;16639;51.488;0.152;2022-11-15T05:39:04;15.63;;;3.05;;
29730;SDS011;16639;51.488;0.152;2022-11-15T05:41:37;13.77;;;3.80;;
29730;SDS011;16639;51.488;0.152;2022-11-15T05:44:15;17.20;;;3.88;;
29730;SDS011;16639;51.488;0.152;2022-11-15T05:46:48;19.95;;;5.10;;
29730;SDS011;16639;51.488;0.152;2022-11-15T05:49:17;10.35;;;2.42;;
29730;SDS011;16639;51.488;0.152;2022-11-15T05:51:47;12.40;;;2.70;;
29730;SDS011;16639;51.488;0.152;2022-11-15T05:54:16;18.30;;;3.03;;
29730;SDS011;16639;51.488;0.152;2022-11-15T05:56:44;22.40;;;4.18;;
29730;SDS011;16639;51.488;0.152;2022-11-15T05:59:11;17.52;;;3.67;;
29730;SDS011;16639;51.488;0.152;2022-11-15T06:01:39;14.27;;;3.33;;
29730;SDS011;16639;51.488;0.152;2022-11-15T06:04:07;12.65;;;3.05;;
29730;SDS011;16639;51.488;0.152;2022-11-15T06:06:34;21.10;;;3.67;;
29730;SDS011;16639;51.488;0.152;2022-11-15T06:09:01;16.35;;;2.65;;
29730;SDS011;16639;51.488;0.152;2022-11-15T06:11:29;18.13;;;3.03;;
29730;SDS011;16639;51.488;0.152;2022-11-15T06:13:56;21.55;;;3.17;;
29730;SDS011;16639;51.488;0.152;2022-11-15T06:16:23;18.00;;;2.55;;
29730;SDS011;16639;51.488;0.152;2022-11-15T06:18:51;14.90;;;2.90;;
29730;SDS011;16639;51.488;0.152;2022-11-15T06:21:18;23.92;;;3.80;;
29730;SDS011;16639;51.488;0.152;2022-11-15T06:23:45;13.70;;;3.40;;
29730;SDS011;16639;51.488;0.152;2022-11-15T06:26:13;16.20;;;2.97;;
29730;SDS011;16639;51.488;0.152;2022-11-15T06:28:40;14.10;;;3.35;;
29730;SDS011;16639;51.488;0.152;2022-11-15T06:31:09;15.15;;;2.85;;
29730;SDS011;16639;51.488;0.152;2022-11-15T06:33:38;17.25;;;3.05;;
29730;SDS011;16639;51.488;0.152;2022-11-15T06:36:10;10.38;;;2.13;;
29730;SDS011;16639;51.488;0.152;2022-11-15T06:38:44;8.38;;;2.78;;
29730;SDS011;16639;51.488;0.152;2022-11-15T06:41:12;18.50;;;3.30;;
29730;SDS011;16639;51.488;0.152;2022-11-15T06:43:40;10.40;;;3.03;;
29730;SDS011;16639;51.488;0.152;2022-11-15T06:46:08;10.25;;;2.75;;
29730;SDS011;16639;51.488;0.152;2022-11-15T06:48:36;15.43;;;3.42;;
29730;SDS011;16639;51.488;0.152;2022-11-15T06:51:04;14.55;;;2.85;;
29730;SDS011;16639;51.488;0.152;2022-11-15T06:53:34;18.67;;;2.88;;
29730;SDS011;16639;51.488;0.152;2022-11-15T06:56:02;17.10;;;3.78;;
29730;SDS011;16639;51.488;0.152;2022-11-15T06:58:31;28.40;;;4.68;;
29730;SDS011;16639;51.488;0.152;2022-11-15T07:01:08;15.73;;;2.85;;
29730;SDS011;16639;51.488;0.152;2022-11-15T07:03:39;11.93;;;3.13;;
29730;SDS011;16639;51.488;0.152;2022-11-15T07:06:07;9.25;;;3.03;;
29730;SDS011;16639;51.488;0.152;2022-11-15T07:08:36;17.35;;;4.30;;
29730;SDS011;16639;51.488;0.152;2022-11-15T07:11:05;17.60;;;3.63;;
29730;SDS011;16639;51.488;0.152;2022-11-15T07:13:34;16.60;;;2.58;;
29730;SDS011;16639;51.488;0.152;2022-11-15T07:16:07;18.42;;;3.38;;
29730;SDS011;16639;51.488;0.152;2022-11-15T07:18:36;25.02;;;3.67;;
29730;SDS011;16639;51.488;0.152;2022-11-15T07:21:07;11.00;;;3.05;;
29730;SDS011;16639;51.488;0.152;2022-11-15T07:23:39;13.70;;;2.92;;
29730;SDS011;16639;51.488;0.152;2022-11-15T07:26:07;16.27;;;3.30;;
29730;SDS011;16639;51.488;0.152;2022-11-15T07:28:35;31.33;;;5.28;;
29730;SDS011;16639;51.488;0.152;2022-11-15T07:31:07;15.45;;;2.95;;
29730;SDS011;16639;51.488;0.152;2022-11-15T07:33:35;12.38;;;3.03;;
29730;SDS011;16639;51.488;0.152;2022-11-15T07:36:04;14.20;;;2.65;;
29730;SDS011;16639;51.488;0.152;2022-11-15T07:38:33;9.77;;;2.50;;
29730;SDS011;16639;51.488;0.152;2022-11-15T07:41:08;22.33;;;4.00;;
29730;SDS011;16639;51.488;0.152;2022-11-15T07:43:36;15.88;;;2.72;;
29730;SDS011;16639;51.488;0.152;2022-11-15T07:46:04;11.55;;;3.05;;
29730;SDS011;16639;51.488;0.152;2022-11-15T07:48:36;21.73;;;2.92;;
29730;SDS011;16639;51.488;0.152;2022-11-15T07:51:11;20.52;;;3.30;;
29730;SDS011;16639;51.488;0.152;2022-11-15T07:53:43;16.52;;;3.50;;
29730;SDS011;16639;51.488;0.152;2022-11-15T07:56:11;18.52;;;4.00;;
29730;SDS011;16639;51.488;0.152;2022-11-15T07:58:39;21.08;;;4.07;;
29730;SDS011;16639;51.488;0.152;2022-11-15T08:01:08;14.90;;;3.20;;
29730;SDS011;16639;51.488;0.152;2022-11-15T08:03:37;13.93;;;3.40;;
29730;SDS011;16639;51.488;0.152;2022-11-15T08:06:04;13.63;;;3.17;;
29730;SDS011;16639;51.488;0.152;2022-11-15T08:08:32;17.73;;;3.95;;
29730;SDS011;16639;51.488;0.152;2022-11-15T08:10:59;12.10;;;2.97;;
29730;SDS011;16639;51.488;0.152;2022-11-15T08:13:45;25.93;;;4.27;;
29730;SDS011;16639;51.488;0.152;2022-11-15T08:16:12;17.23;;;3.78;;
29730;SDS011;16639;51.488;0.152;2022-11-15T08:18:40;18.13;;;3.70;;
29730;SDS011;16639;51.488;0.152;2022-11-15T08:21:08;10.73;;;4.13;;
29730;SDS011;16639;51.488;0.152;2022-11-15T08:26:11;9.43;;;2.92;;
29730;SDS011;16639;51.488;0.152;2022-11-15T08:28:38;15.48;;;4.32;;
29730;SDS011;16639;51.488;0.152;2022-11-15T08:31:06;10.88;;;3.33;;
29730;SDS011;16639;51.488;0.152;2022-11-15T08:33:33;16.30;;;3.83;;
29730;SDS011;16639;51.488;0.152;2022-11-15T08:36:02;9.52;;;2.88;;
29730;SDS011;16639;51.488;0.152;2022-11-15T08:38:29;10.32;;;3.33;;
29730;SDS011;16639;51.488;0.152;2022-11-15T08:41:04;12.25;;;3.47;;
29730;SDS011;16639;51.488;0.152;2022-11-15T08:43:32;7.65;;;3.28;;
29730;SDS011;16639;51.488;0.152;2022-11-15T08:46:00;14.07;;;3.30;;
29730;SDS011;16639;51.488;0.152;2022-11-15T08:48:28;17.63;;;3.97;;
29730;SDS011;16639;51.488;0.152;2022-11-15T08:50:56;14.00;;;3.08;;
29730;SDS011;16639;51.488;0.152;2022-11-15T08:53:25;8.43;;;2.88;;
29730;SDS011;16639;51.488;0.152;2022-11-15T08:55:52;15.68;;;3.35;;
29730;SDS011;16639;51.488;0.152;2022-11-15T08:58:20;8.52;;;2.63;;
29730;SDS011;16639;51.488;0.152;2022-11-15T09:00:47;7.00;;;3.03;;
29730;SDS011;16639;51.488;0.152;2022-11-15T09:03:14;13.98;;;2.42;;
29730;SDS011;16639;51.488;0.152;2022-11-15T09:05:42;8.43;;;1.95;;
29730;SDS011;16639;51.488;0.152;2022-11-15T09:08:09;6.32;;;2.67;;
29730;SDS011;16639;51.488;0.152;2022-11-15T09:11:02;5.35;;;2.05;;
29730;SDS011;16639;51.488;0.152;2022-11-15T09:13:30;3.80;;;1.40;;
29730;SDS011;16639;51.488;0.152;2022-11-15T09:15:58;4.50;;;2.45;;
29730;SDS011;16639;51.488;0.152;2022-11-15T09:18:27;6.38;;;1.70;;
29730;SDS011;16639;51.488;0.152;2022-11-15T09:20:56;4.00;;;2.13;;
29730;SDS011;16639;51.488;0.152;2022-11-15T09:23:25;7.35;;;1.80;;
29730;SDS011;16639;51.488;0.152;2022-11-15T09:25:57;5.53;;;2.30;;
29730;SDS011;16639;51.488;0.152;2022-11-15T09:28:31;3.35;;;2.35;;
29730;SDS011;16639;51.488;0.152;2022-11-15T09:31:01;7.03;;;2.63;;
29730;SDS011;16639;51.488;0.152;2022-11-15T09:33:31;7.10;;;2.10;;
29730;SDS011;16639;51.488;0.152;2022-11-15T09:36:00;5.88;;;1.90;;
29730;SDS011;16639;51.488;0.152;2022-11-15T09:38:29;5.63;;;1.88;;
29730;SDS011;16639;51.488;0.152;2022-11-15T09:41:44;6.03;;;1.80;;
29730;SDS011;16639;51.488;0.152;2022-11-15T09:46:34;7.95;;;1.80;;
29730;SDS011;16639;51.488;0.152;2022-11-15T09:49:23;5.13;;;1.55;;
29730;SDS011;16639;51.488;0.152;2022-11-15T09:51:52;4.80;;;1.40;;
29730;SDS011;16639;51.488;0.152;2022-11-15T09:54:26;6.97;;;1.48;;
29730;SDS011;16639;51.488;0.152;2022-11-15T10:00:35;7.13;;;1.70;;
29730;SDS011;16639;51.488;0.152;2022-11-15T10:03:19;5.47;;;1.45;;
29730;SDS011;16639;51.488;0.152;2022-11-15T10:05:54;3.83;;;1.38;;
29730;SDS011;16639;51.488;0.152;2022-11-15T10:11:32;2.92;;;1.30;;
29730;SDS011;16639;51.488;0.152;2022-11-15T10:24:52;4.03;;;1.60;;
29730;SDS011;16639;51.488;0.152;2022-11-15T10:27:27;5.72;;;1.48;;
29730;SDS011;16639;51.488;0.152;2022-11-15T10:29:56;5.88;;;1.58;;
29730;SDS011;16639;51.488;0.152;2022-11-15T10:32:23;2.35;;;1.40;;
29730;SDS011;16639;51.488;0.152;2022-11-15T10:34:51;4.13;;;1.33;;
29730;SDS011;16639;51.488;0.152;2022-11-15T10:37:29;3.15;;;1.10;;
29730;SDS011;16639;51.488;0.152;2022-11-15T10:40:14;3.10;;;1.38;;
29730;SDS011;16639;51.488;0.152;2022-11-15T10:43:03;2.50;;;1.00;;
29730;SDS011;16639;51.488;0.152;2022-11-15T10:45:37;7.78;;;1.63;;
29730;SDS011;16639;51.488;0.152;2022-11-15T10:50:47;5.28;;;1.20;;
29730;SDS011;16639;51.488;0.152;2022-11-15T10:55:51;4.07;;;1.90;;
29730;SDS011;16639;51.488;0.152;2022-11-15T10:58:27;2.25;;;1.27;;
29730;SDS011;16639;51.488;0.152;2022-11-15T11:07:08;5.60;;;1.80;;
29730;SDS011;16639;51.488;0.152;2022-11-15T11:11:57;2.25;;;1.20;;
29730;SDS011;16639;51.488;0.152;2022-11-15T11:14:29;4.53;;;1.77;;
29730;SDS011;16639;51.488;0.152;2022-11-15T11:20:18;3.67;;;1.58;;
29730;SDS011;16639;51.488;0.152;2022-11-15T11:25:36;4.80;;;1.45;;
29730;SDS011;16639;51.488;0.152;2022-11-15T11:36:45;7.22;;;1.77;;
29730;SDS011;16639;51.488;0.152;2022-11-15T11:41:59;5.05;;;1.27;;
29730;SDS011;16639;51.488;0.152;2022-11-15T11:47:48;2.20;;;1.52;;
29730;SDS011;16639;51.488;0.152;2022-11-15T11:50:25;2.10;;;1.10;;
29730;SDS011;16639;51.488;0.152;2022-11-15T11:55:34;3.28;;;1.50;;
29730;SDS011;16639;51.488;0.152;2022-11-15T12:00:41;4.15;;;1.38;;
29730;SDS011;16639;51.488;0.152;2022-11-15T12:03:25;3.80;;;1.17;;
29730;SDS011;16639;51.488;0.152;2022-11-15T12:05:57;7.30;;;1.00;;
29730;SDS011;16639;51.488;0.152;2022-11-15T12:08:52;2.27;;;1.13;;
29730;SDS011;16639;51.488;0.152;2022-11-15T12:14:11;3.08;;;1.45;;
29730;SDS011;16639;51.488;0.152;2022-11-15T12:16:56;5.90;;;1.13;;
29730;SDS011;16639;51.488;0.152;2022-11-15T12:19:25;3.97;;;1.00;;
29730;SDS011;16639;51.488;0.152;2022-11-15T12:21:59;6.72;;;1.92;;
29730;SDS011;16639;51.488;0.152;2022-11-15T12:24:50;3.25;;;1.25;;
29730;SDS011;16639;51.488;0.152;2022-11-15T12:30:13;1.83;;;1.20;;
29730;SDS011;16639;51.488;0.152;2022-11-15T12:35:25;5.15;;;1.15;;
29730;SDS011;16639;51.488;0.152;2022-11-15T12:37:54;11.82;;;1.98;;
29730;SDS011;16639;51.488;0.152;2022-11-15T12:45:52;3.85;;;1.98;;
29730;SDS011;16639;51.488;0.152;2022-11-15T12:51:02;8.52;;;1.73;;
29730;SDS011;16639;51.488;0.152;2022-11-15T12:53:30;3.60;;;1.60;;
29730;SDS011;16639;51.488;0.152;2022-11-15T13:04:47;10.57;;;1.83;;
29730;SDS011;16639;51.488;0.152;2022-11-15T13:07:05;9.15;;;1.98;;
29730;SDS011;16639;51.488;0.152;2022-11-15T13:14:51;7.85;;;1.88;;
29730;SDS011;16639;51.488;0.152;2022-11-15T13:17:36;10.13;;;1.73;;
29730;SDS011;16639;51.488;0.152;2022-11-15T13:22:44;7.43;;;1.73;;
29730;SDS011;16639;51.488;0.152;2022-11-15T13:28:22;5.25;;;1.80;;
29730;SDS011;16639;51.488;0.152;2022-11-15T13:30:59;11.40;;;2.20;;
29730;SDS011;16639;51.488;0.152;2022-11-15T13:33:42;6.70;;;1.80;;
29730;SDS011;16639;51.488;0.152;2022-11-15T13:38:45;9.60;;;2.17;;
29730;SDS011;16639;51.488;0.152;2022-11-15T13:41:23;6.85;;;2.10;;
29730;SDS011;16639;51.488;0.152;2022-11-15T13:43:53;6.63;;;2.17;;
29730;SDS011;16639;51.488;0.152;2022-11-15T13:46:25;5.93;;;1.85;;
29730;SDS011;16639;51.488;0.152;2022-11-15T13:48:56;15.93;;;2.53;;
29730;SDS011;16639;51.488;0.152;2022-11-15T13:56:44;13.85;;;2.33;;
29730;SDS011;16639;51.488;0.152;2022-11-15T13:59:17;6.35;;;1.73;;
29730;SDS011;16639;51.488;0.152;2022-11-15T14:01:53;5.65;;;2.00;;
29730;SDS011;16639;51.488;0.152;2022-11-15T14:04:22;5.10;;;1.75;;
29730;SDS011;16639;51.488;0.152;2022-11-15T14:06:53;7.05;;;2.65;;
29730;SDS011;16639;51.488;0.152;2022-11-15T14:12:02;14.45;;;2.30;;
29730;SDS011;16639;51.488;0.152;2022-11-15T14:14:48;14.10;;;3.60;;
29730;SDS011;16639;51.488;0.152;2022-11-15T14:17:19;11.80;;;1.90;;
29730;SDS011;16639;51.488;0.152;2022-11-15T14:19:50;6.43;;;2.35;;
29730;SDS011;16639;51.488;0.152;2022-11-15T14:22:19;14.10;;;3.00;;
29730;SDS011;16639;51.488;0.152;2022-11-15T14:27:43;17.50;;;3.40;;
29730;SDS011;16639;51.488;0.152;2022-11-15T14:30:31;8.50;;;1.92;;
29730;SDS011;16639;51.488;0.152;2022-11-15T14:32:58;18.65;;;2.90;;
29730;SDS011;16639;51.488;0.152;2022-11-15T14:35:26;11.02;;;2.65;;
29730;SDS011;16639;51.488;0.152;2022-11-15T14:37:53;7.55;;;2.30;;
29730;SDS011;16639;51.488;0.152;2022-11-15T14:40:21;12.63;;;2.47;;
29730;SDS011;16639;51.488;0.152;2022-11-15T14:42:49;17.15;;;3.30;;
29730;SDS011;16639;51.488;0.152;2022-11-15T14:45:18;11.93;;;1.80;;
29730;SDS011;16639;51.488;0.152;2022-11-15T14:47:47;13.75;;;2.45;;
29730;SDS011;16639;51.488;0.152;2022-11-15T14:50:18;9.05;;;2.22;;
29730;SDS011;16639;51.488;0.152;2022-11-15T14:52:47;11.07;;;2.13;;
29730;SDS011;16639;51.488;0.152;2022-11-15T14:55:16;9.27;;;2.65;;
29730;SDS011;16639;51.488;0.152;2022-11-15T14:57:48;8.20;;;1.98;;
29730;SDS011;16639;51.488;0.152;2022-11-15T15:00:16;11.95;;;2.67;;
29730;SDS011;16639;51.488;0.152;2022-11-15T15:02:44;13.65;;;2.38;;
29730;SDS011;16639;51.488;0.152;2022-11-15T15:05:14;9.80;;;2.25;;
29730;SDS011;16639;51.488;0.152;2022-11-15T15:07:46;9.38;;;2.10;;
29730;SDS011;16639;51.488;0.152;2022-11-15T15:10:14;11.77;;;2.30;;
29730;SDS011;16639;51.488;0.152;2022-11-15T15:13:03;14.48;;;2.15;;
29730;SDS011;16639;51.488;0.152;2022-11-15T15:15:32;15.15;;;4.65;;
29730;SDS011;16639;51.488;0.152;2022-11-15T15:18:01;18.63;;;2.63;;
29730;SDS011;16639;51.488;0.152;2022-11-15T15:20:37;14.68;;;2.78;;
29730;SDS011;16639;51.488;0.152;2022-11-15T15:23:16;11.60;;;2.78;;
29730;SDS011;16639;51.488;0.152;2022-11-15T15:25:45;11.38;;;2.72;;
29730;SDS011;16639;51.488;0.152;2022-11-15T15:28:14;10.63;;;2.75;;
29730;SDS011;16639;51.488;0.152;2022-11-15T15:30:42;13.40;;;3.25;;
29730;SDS011;16639;51.488;0.152;2022-11-15T15:33:10;15.25;;;2.90;;
29730;SDS011;16639;51.488;0.152;2022-11-15T15:35:37;9.57;;;2.40;;
29730;SDS011;16639;51.488;0.152;2022-11-15T15:38:05;15.43;;;2.75;;
29730;SDS011;16639;51.488;0.152;2022-11-15T15:40:32;7.15;;;2.33;;
29730;SDS011;16639;51.488;0.152;2022-11-15T15:43:00;19.83;;;3.22;;
29730;SDS011;16639;51.488;0.152;2022-11-15T15:45:27;13.00;;;2.85;;
29730;SDS011;16639;51.488;0.152;2022-11-15T15:47:56;7.55;;;2.38;;
29730;SDS011;16639;51.488;0.152;2022-11-15T15:50:25;8.35;;;2.78;;
29730;SDS011;16639;51.488;0.152;2022-11-15T15:52:54;9.02;;;2.35;;
29730;SDS011;16639;51.488;0.152;2022-11-15T15:55:24;12.75;;;3.10;;
29730;SDS011;16639;51.488;0.152;2022-11-15T15:57:52;12.77;;;3.42;;
29730;SDS011;16639;51.488;0.152;2022-11-15T16:00:20;14.80;;;3.03;;
29730;SDS011;16639;51.488;0.152;2022-11-15T16:02:50;12.75;;;3.80;;
29730;SDS011;16639;51.488;0.152;2022-11-15T16:05:18;7.80;;;3.45;;
29730;SDS011;16639;51.488;0.152;2022-11-15T16:07:46;14.73;;;4.95;;
29730;SDS011;16639;51.488;0.152;2022-11-15T16:10:19;14.65;;;2.80;;
29730;SDS011;16639;51.488;0.152;2022-11-15T16:12:54;6.05;;;2.10;;
29730;SDS011;16639;51.488;0.152;2022-11-15T16:15:23;12.90;;;3.40;;
29730;SDS011;16639;51.488;0.152;2022-11-15T16:17:53;9.98;;;2.83;;
29730;SDS011;16639;51.488;0.152;2022-11-15T16:20:44;13.90;;;2.95;;
29730;SDS011;16639;51.488;0.152;2022-11-15T16:23:16;13.70;;;2.80;;
29730;SDS011;16639;51.488;0.152;2022-11-15T16:25:48;9.40;;;2.72;;
29730;SDS011;16639;51.488;0.152;2022-11-15T16:30:43;11.25;;;3.80;;
29730;SDS011;16639;51.488;0.152;2022-11-15T16:33:11;11.77;;;2.80;;
29730;SDS011;16639;51.488;0.152;2022-11-15T16:35:39;11.60;;;3.30;;
29730;SDS011;16639;51.488;0.152;2022-11-15T16:38:11;13.07;;;2.50;;
29730;SDS011;16639;51.488;0.152;2022-11-15T16:40:41;12.40;;;3.25;;
29730;SDS011;16639;51.488;0.152;2022-11-15T16:43:09;15.15;;;2.60;;
29730;SDS011;16639;51.488;0.152;2022-11-15T16:45:37;10.77;;;2.67;;
29730;SDS011;16639;51.488;0.152;2022-11-15T16:48:05;19.88;;;3.33;;
29730;SDS011;16639;51.488;0.152;2022-11-15T16:50:33;12.48;;;2.75;;
29730;SDS011;16639;51.488;0.152;2022-11-15T16:53:07;14.65;;;2.97;;
29730;SDS011;16639;51.488;0.152;2022-11-15T16:55:34;11.75;;;3.08;;
29730;SDS011;16639;51.488;0.152;2022-11-15T16:58:02;13.13;;;3.58;;
29730;SDS011;16639;51.488;0.152;2022-11-15T17:00:29;17.25;;;3.28;;
29730;SDS011;16639;51.488;0.152;2022-11-15T17:02:57;10.10;;;4.43;;
29730;SDS011;16639;51.488;0.152;2022-11-15T17:05:24;15.80;;;3.60;;
29730;SDS011;16639;51.488;0.152;2022-11-15T17:07:54;11.55;;;2.40;;
29730;SDS011;16639;51.488;0.152;2022-11-15T17:10:22;9.30;;;2.95;;
29730;SDS011;16639;51.488;0.152;2022-11-15T17:12:50;13.18;;;4.03;;
29730;SDS011;16639;51.488;0.152;2022-11-15T17:15:18;15.43;;;4.00;;
29730;SDS011;16639;51.488;0.152;2022-11-15T17:17:52;13.02;;;2.97;;
29730;SDS011;16639;51.488;0.152;2022-11-15T17:20:21;8.48;;;2.80;;
29730;SDS011;16639;51.488;0.152;2022-11-15T17:22:50;9.48;;;2.65;;
29730;SDS011;16639;51.488;0.152;2022-11-15T17:25:18;11.68;;;3.88;;
29730;SDS011;16639;51.488;0.152;2022-11-15T17:27:46;10.70;;;3.70;;